Wellton, Arizona
Current Conditions -  °F | °C
As of 4:57 AM on Friday 28 Nov 2014 (Local Time) from KNYL Reporting Station
Clear Clear  
Wind Chill: 57°   Ceiling: Unl
Heat Index: 57°   Visibility: 10mi
Dew Point: 26°   Wind: 6mph
Humidity: 30%   Direction: 30°NNE
Pressure: 29.98"   Gusts: NA
Location:  32.67°N, 114.15°W
Report Text: KNYL 281157Z 03005KT 10SM CLR 14/M03 A2998 RMK AO2 SLP151 T01391033 10172 20133 58007
Loading
Personal Weather Stations






























Interactive Weather Map New forecast layout! Learn more

10-Day Weather Forecast

Advertisements
Track Severe Weather on mobile